sensor_id;sensor_type;location;lat;lon;timestamp;pressure;altitude;pressure_sealevel;temperature;humidity
84914;BME280;75177;43.832;5.974;2024-01-15T00:02:02;94158.56;;;6.88;71.71
84914;BME280;75177;43.832;5.974;2024-01-15T00:04:28;94153.63;;;6.85;72.09
84914;BME280;75177;43.832;5.974;2024-01-15T00:06:54;94153.97;;;6.82;72.57
84914;BME280;75177;43.832;5.974;2024-01-15T00:09:19;94154.13;;;6.80;71.89
84914;BME280;75177;43.832;5.974;2024-01-15T00:11:44;94153.81;;;6.75;71.50
84914;BME280;75177;43.832;5.974;2024-01-15T00:14:10;94142.56;;;6.73;71.69
84914;BME280;75177;43.832;5.974;2024-01-15T00:16:35;94139.44;;;6.70;71.40
84914;BME280;75177;43.832;5.974;2024-01-15T00:19:01;94142.59;;;6.65;71.87
84914;BME280;75177;43.832;5.974;2024-01-15T00:21:26;94140.41;;;6.77;71.99
84914;BME280;75177;43.832;5.974;2024-01-15T00:23:53;94136.25;;;6.74;72.16
84914;BME280;75177;43.832;5.974;2024-01-15T00:26:18;94136.59;;;6.71;72.21
84914;BME280;75177;43.832;5.974;2024-01-15T00:28:44;94138.09;;;6.74;72.36
84914;BME280;75177;43.832;5.974;2024-01-15T00:31:09;94124.34;;;6.70;71.74
84914;BME280;75177;43.832;5.974;2024-01-15T00:33:35;94125.19;;;6.71;72.21
84914;BME280;75177;43.832;5.974;2024-01-15T00:36:00;94120.69;;;6.71;71.63
84914;BME280;75177;43.832;5.974;2024-01-15T00:38:26;94121.50;;;6.72;71.45
84914;BME280;75177;43.832;5.974;2024-01-15T00:40:51;94124.50;;;6.77;71.52
84914;BME280;75177;43.832;5.974;2024-01-15T00:43:16;94114.22;;;6.74;71.85
84914;BME280;75177;43.832;5.974;2024-01-15T00:45:44;94114.91;;;6.68;71.57
84914;BME280;75177;43.832;5.974;2024-01-15T00:48:10;94125.97;;;6.71;71.49
84914;BME280;75177;43.832;5.974;2024-01-15T00:50:35;94128.50;;;6.73;71.72
84914;BME280;75177;43.832;5.974;2024-01-15T00:53:00;94128.81;;;6.70;71.64
84914;BME280;75177;43.832;5.974;2024-01-15T00:55:28;94128.81;;;6.70;71.42
84914;BME280;75177;43.832;5.974;2024-01-15T00:57:53;94141.09;;;6.71;71.15
84914;BME280;75177;43.832;5.974;2024-01-15T01:00:19;94134.97;;;6.70;71.24
84914;BME280;75177;43.832;5.974;2024-01-15T01:02:44;94136.94;;;6.68;71.67
84914;BME280;75177;43.832;5.974;2024-01-15T01:05:10;94132.63;;;6.67;71.68
84914;BME280;75177;43.832;5.974;2024-01-15T01:07:35;94142.09;;;6.62;71.15
84914;BME280;75177;43.832;5.974;2024-01-15T01:10:01;94135.97;;;6.61;71.23
84914;BME280;75177;43.832;5.974;2024-01-15T01:12:26;94129.03;;;6.60;71.75
84914;BME280;75177;43.832;5.974;2024-01-15T01:14:51;94116.59;;;6.61;71.66
84914;BME280;75177;43.832;5.974;2024-01-15T01:17:17;94117.59;;;6.60;71.55
84914;BME280;75177;43.832;5.974;2024-01-15T01:19:42;94124.56;;;6.61;71.78
84914;BME280;75177;43.832;5.974;2024-01-15T01:22:08;94121.38;;;6.65;71.98
84914;BME280;75177;43.832;5.974;2024-01-15T01:24:33;94118.56;;;6.67;71.94
84914;BME280;75177;43.832;5.974;2024-01-15T01:26:59;94118.22;;;6.70;72.29
84914;BME280;75177;43.832;5.974;2024-01-15T01:29:24;94115.75;;;6.68;72.47
84914;BME280;75177;43.832;5.974;2024-01-15T01:31:49;94114.56;;;6.71;72.87
84914;BME280;75177;43.832;5.974;2024-01-15T01:34:15;94110.91;;;6.72;73.49
84914;BME280;75177;43.832;5.974;2024-01-15T01:36:42;94113.75;;;6.70;73.97
84914;BME280;75177;43.832;5.974;2024-01-15T01:39:07;94105.97;;;6.69;74.48
84914;BME280;75177;43.832;5.974;2024-01-15T01:41:33;94113.56;;;6.72;75.04
84914;BME280;75177;43.832;5.974;2024-01-15T01:43:58;94118.53;;;6.75;75.14
84914;BME280;75177;43.832;5.974;2024-01-15T01:46:24;94109.28;;;6.71;75.46
84914;BME280;75177;43.832;5.974;2024-01-15T01:48:51;94112.91;;;6.70;75.44
84914;BME280;75177;43.832;5.974;2024-01-15T01:51:17;94105.13;;;6.68;75.87
84914;BME280;75177;43.832;5.974;2024-01-15T01:53:44;94095.56;;;6.59;75.75
84914;BME280;75177;43.832;5.974;2024-01-15T01:56:11;94107.13;;;6.66;76.04
84914;BME280;75177;43.832;5.974;2024-01-15T01:58:37;94100.16;;;6.65;76.71
84914;BME280;75177;43.832;5.974;2024-01-15T02:01:02;94092.84;;;6.67;76.99
84914;BME280;75177;43.832;5.974;2024-01-15T02:03:29;94084.91;;;6.67;77.37
84914;BME280;75177;43.832;5.974;2024-01-15T02:05:56;94075.31;;;6.66;77.19
84914;BME280;75177;43.832;5.974;2024-01-15T02:08:22;94066.19;;;6.69;77.78
84914;BME280;75177;43.832;5.974;2024-01-15T02:10:47;94064.88;;;6.65;77.73
84914;BME280;75177;43.832;5.974;2024-01-15T02:13:13;94067.19;;;6.68;77.94
84914;BME280;75177;43.832;5.974;2024-01-15T02:15:38;94067.63;;;6.71;78.29
84914;BME280;75177;43.832;5.974;2024-01-15T02:18:05;94066.34;;;6.67;78.71
84914;BME280;75177;43.832;5.974;2024-01-15T02:20:32;94057.72;;;6.65;79.05
84914;BME280;75177;43.832;5.974;2024-01-15T02:23:08;94047.50;;;6.62;79.06
84914;BME280;75177;43.832;5.974;2024-01-15T02:25:40;94052.78;;;6.62;79.90
84914;BME280;75177;43.832;5.974;2024-01-15T02:28:07;94051.97;;;6.62;79.65
84914;BME280;75177;43.832;5.974;2024-01-15T02:30:37;94048.31;;;6.63;80.06
84914;BME280;75177;43.832;5.974;2024-01-15T02:33:04;94047.13;;;6.65;80.70
84914;BME280;75177;43.832;5.974;2024-01-15T02:35:29;94044.66;;;6.64;80.60
84914;BME280;75177;43.832;5.974;2024-01-15T02:37:55;94036.06;;;6.62;80.46
84914;BME280;75177;43.832;5.974;2024-01-15T02:40:20;94026.75;;;6.66;80.61
84914;BME280;75177;43.832;5.974;2024-01-15T02:42:45;94047.97;;;6.66;80.87
84914;BME280;75177;43.832;5.974;2024-01-15T02:45:11;94039.50;;;6.70;80.97
84914;BME280;75177;43.832;5.974;2024-01-15T02:47:36;94038.31;;;6.73;81.35
84914;BME280;75177;43.832;5.974;2024-01-15T02:50:02;94030.19;;;6.74;81.30
84914;BME280;75177;43.832;5.974;2024-01-15T02:52:27;94021.06;;;6.77;82.03
84914;BME280;75177;43.832;5.974;2024-01-15T02:54:52;94010.09;;;6.80;82.22
84914;BME280;75177;43.832;5.974;2024-01-15T02:57:18;94014.72;;;6.78;82.07
84914;BME280;75177;43.832;5.974;2024-01-15T02:59:43;94000.94;;;6.82;82.37
84914;BME280;75177;43.832;5.974;2024-01-15T03:02:09;94012.41;;;6.83;82.33
84914;BME280;75177;43.832;5.974;2024-01-15T03:04:34;94005.91;;;6.85;82.33
84914;BME280;75177;43.832;5.974;2024-01-15T03:07:00;93992.81;;;6.84;82.36
84914;BME280;75177;43.832;5.974;2024-01-15T03:09:25;93993.81;;;6.83;82.79
84914;BME280;75177;43.832;5.974;2024-01-15T03:11:50;93994.09;;;6.88;83.02
84914;BME280;75177;43.832;5.974;2024-01-15T03:14:16;93994.47;;;6.85;82.96
84914;BME280;75177;43.832;5.974;2024-01-15T03:16:41;93995.59;;;6.90;83.01
84914;BME280;75177;43.832;5.974;2024-01-15T03:19:07;93999.41;;;6.88;82.38
84914;BME280;75177;43.832;5.974;2024-01-15T03:21:32;93997.41;;;6.90;81.68
84914;BME280;75177;43.832;5.974;2024-01-15T03:23:57;93992.09;;;6.90;81.07
84914;BME280;75177;43.832;5.974;2024-01-15T03:26:23;93996.75;;;6.88;80.59
84914;BME280;75177;43.832;5.974;2024-01-15T03:28:48;93984.22;;;6.82;81.00
84914;BME280;75177;43.832;5.974;2024-01-15T03:31:14;93990.81;;;6.86;81.35
84914;BME280;75177;43.832;5.974;2024-01-15T03:33:39;94008.19;;;6.88;80.65
84914;BME280;75177;43.832;5.974;2024-01-15T03:36:05;94012.53;;;6.89;80.39
84914;BME280;75177;43.832;5.974;2024-01-15T03:38:30;94010.38;;;6.85;81.01
84914;BME280;75177;43.832;5.974;2024-01-15T03:40:55;93999.31;;;6.81;80.98
84914;BME280;75177;43.832;5.974;2024-01-15T03:43:21;94008.44;;;6.79;81.08
84914;BME280;75177;43.832;5.974;2024-01-15T03:45:46;94003.31;;;6.77;81.16
84914;BME280;75177;43.832;5.974;2024-01-15T03:48:12;94004.84;;;6.72;81.37
84914;BME280;75177;43.832;5.974;2024-01-15T03:50:37;93996.53;;;6.75;81.97
84914;BME280;75177;43.832;5.974;2024-01-15T03:53:03;93998.69;;;6.71;82.55
84914;BME280;75177;43.832;5.974;2024-01-15T03:55:28;94006.84;;;6.70;83.11
84914;BME280;75177;43.832;5.974;2024-01-15T03:57:54;93997.91;;;6.71;83.15
84914;BME280;75177;43.832;5.974;2024-01-15T04:00:19;93999.91;;;6.69;83.15
84914;BME280;75177;43.832;5.974;2024-01-15T04:02:44;94005.91;;;6.63;83.43
84914;BME280;75177;43.832;5.974;2024-01-15T04:05:10;94007.19;;;6.67;83.75
84914;BME280;75177;43.832;5.974;2024-01-15T04:07:35;94000.53;;;6.71;84.67
84914;BME280;75177;43.832;5.974;2024-01-15T04:10:01;93991.63;;;6.64;84.33
84914;BME280;75177;43.832;5.974;2024-01-15T04:12:26;93988.66;;;6.59;84.92
84914;BME280;75177;43.832;5.974;2024-01-15T04:14:51;93993.97;;;6.59;84.78
84914;BME280;75177;43.832;5.974;2024-01-15T04:17:17;93999.63;;;6.56;84.74
84914;BME280;75177;43.832;5.974;2024-01-15T04:19:46;94003.97;;;6.48;84.24
84914;BME280;75177;43.832;5.974;2024-01-15T04:22:13;94018.56;;;6.44;84.25
84914;BME280;75177;43.832;5.974;2024-01-15T04:24:38;94015.25;;;6.42;84.32
84914;BME280;75177;43.832;5.974;2024-01-15T04:27:04;94009.97;;;6.42;84.53
84914;BME280;75177;43.832;5.974;2024-01-15T04:29:29;94014.31;;;6.35;84.38
84914;BME280;75177;43.832;5.974;2024-01-15T04:31:55;94010.50;;;6.30;84.92
84914;BME280;75177;43.832;5.974;2024-01-15T04:34:20;94001.44;;;6.24;85.14
84914;BME280;75177;43.832;5.974;2024-01-15T04:36:46;93996.47;;;6.21;84.82
84914;BME280;75177;43.832;5.974;2024-01-15T04:39:11;94006.59;;;6.18;85.24
84914;BME280;75177;43.832;5.974;2024-01-15T04:41:36;94000.13;;;6.20;85.41
84914;BME280;75177;43.832;5.974;2024-01-15T04:44:02;93995.16;;;6.17;84.77
84914;BME280;75177;43.832;5.974;2024-01-15T04:46:28;93992.53;;;6.17;85.61
84914;BME280;75177;43.832;5.974;2024-01-15T04:48:53;93992.69;;;6.16;86.15
84914;BME280;75177;43.832;5.974;2024-01-15T04:51:19;93992.88;;;6.14;85.83
84914;BME280;75177;43.832;5.974;2024-01-15T04:53:44;93999.53;;;6.10;85.61
84914;BME280;75177;43.832;5.974;2024-01-15T04:56:10;94007.97;;;6.06;85.25
84914;BME280;75177;43.832;5.974;2024-01-15T04:58:35;94003.84;;;6.03;85.48
84914;BME280;75177;43.832;5.974;2024-01-15T05:01:00;93997.22;;;5.99;85.38
84914;BME280;75177;43.832;5.974;2024-01-15T05:03:26;93996.75;;;5.96;85.62
84914;BME280;75177;43.832;5.974;2024-01-15T05:05:51;93997.91;;;5.93;85.58
84914;BME280;75177;43.832;5.974;2024-01-15T05:08:17;94006.69;;;5.94;85.95
84914;BME280;75177;43.832;5.974;2024-01-15T05:10:42;94014.78;;;5.92;86.08
84914;BME280;75177;43.832;5.974;2024-01-15T05:13:07;94012.13;;;5.92;86.39
84914;BME280;75177;43.832;5.974;2024-01-15T05:15:33;94014.50;;;5.87;86.64
84914;BME280;75177;43.832;5.974;2024-01-15T05:17:58;94013.47;;;5.80;86.27
84914;BME280;75177;43.832;5.974;2024-01-15T05:20:24;94009.34;;;5.78;86.50
84914;BME280;75177;43.832;5.974;2024-01-15T05:22:49;94020.75;;;5.78;86.84
84914;BME280;75177;43.832;5.974;2024-01-15T05:25:14;94031.03;;;5.81;87.86
84914;BME280;75177;43.832;5.974;2024-01-15T05:27:40;94021.28;;;5.82;88.20
84914;BME280;75177;43.832;5.974;2024-01-15T05:30:05;94029.34;;;5.80;88.01
84914;BME280;75177;43.832;5.974;2024-01-15T05:32:31;94029.06;;;5.75;88.15
84914;BME280;75177;43.832;5.974;2024-01-15T05:34:57;94015.19;;;5.65;88.13
84914;BME280;75177;43.832;5.974;2024-01-15T05:37:22;94007.91;;;5.67;88.30
84914;BME280;75177;43.832;5.974;2024-01-15T05:39:48;94012.69;;;5.63;88.04
84914;BME280;75177;43.832;5.974;2024-01-15T05:42:13;94016.66;;;5.59;87.82
84914;BME280;75177;43.832;5.974;2024-01-15T05:44:38;94017.50;;;5.60;87.44
84914;BME280;75177;43.832;5.974;2024-01-15T05:47:04;94030.41;;;5.55;87.75
84914;BME280;75177;43.832;5.974;2024-01-15T05:49:29;94027.44;;;5.50;88.04
84914;BME280;75177;43.832;5.974;2024-01-15T05:51:55;94027.44;;;5.50;87.86
84914;BME280;75177;43.832;5.974;2024-01-15T05:54:20;94020.66;;;5.39;88.54
84914;BME280;75177;43.832;5.974;2024-01-15T05:56:46;94039.34;;;5.46;88.19
84914;BME280;75177;43.832;5.974;2024-01-15T05:59:11;94042.16;;;5.36;88.63
84914;BME280;75177;43.832;5.974;2024-01-15T06:01:36;94037.69;;;5.37;88.86
84914;BME280;75177;43.832;5.974;2024-01-15T06:04:02;94044.31;;;5.41;89.24
84914;BME280;75177;43.832;5.974;2024-01-15T06:06:27;94051.28;;;5.42;90.54
84914;BME280;75177;43.832;5.974;2024-01-15T06:08:53;94038.69;;;5.44;90.51
84914;BME280;75177;43.832;5.974;2024-01-15T06:11:18;94044.31;;;5.49;90.73
84914;BME280;75177;43.832;5.974;2024-01-15T06:13:43;94045.47;;;5.54;91.26
84914;BME280;75177;43.832;5.974;2024-01-15T06:16:15;94037.00;;;5.59;91.74
84914;BME280;75177;43.832;5.974;2024-01-15T06:18:47;94037.00;;;5.59;92.38
84914;BME280;75177;43.832;5.974;2024-01-15T06:21:13;94031.72;;;5.59;92.52
84914;BME280;75177;43.832;5.974;2024-01-15T06:23:39;94042.31;;;5.67;92.73
84914;BME280;75177;43.832;5.974;2024-01-15T06:26:05;94031.72;;;5.59;92.92
84914;BME280;75177;43.832;5.974;2024-01-15T06:28:30;94040.31;;;5.61;92.85
84914;BME280;75177;43.832;5.974;2024-01-15T06:30:57;94035.69;;;5.55;93.50
84914;BME280;75177;43.832;5.974;2024-01-15T06:33:23;94035.22;;;5.51;93.26
84914;BME280;75177;43.832;5.974;2024-01-15T06:35:48;94041.66;;;5.49;93.18
84914;BME280;75177;43.832;5.974;2024-01-15T06:38:14;94033.72;;;5.41;93.02
84914;BME280;75177;43.832;5.974;2024-01-15T06:40:40;94042.00;;;5.46;93.36
84914;BME280;75177;43.832;5.974;2024-01-15T06:43:13;94049.28;;;5.44;92.74
84914;BME280;75177;43.832;5.974;2024-01-15T06:45:39;94050.44;;;5.41;92.27
84914;BME280;75177;43.832;5.974;2024-01-15T06:48:04;94048.28;;;5.37;92.50
84914;BME280;75177;43.832;5.974;2024-01-15T06:50:30;94039.03;;;5.25;91.98
84914;BME280;75177;43.832;5.974;2024-01-15T06:52:55;94046.78;;;5.26;91.77
84914;BME280;75177;43.832;5.974;2024-01-15T06:55:21;94059.84;;;5.28;92.33
84914;BME280;75177;43.832;5.974;2024-01-15T06:57:46;94065.81;;;5.22;92.67
84914;BME280;75177;43.832;5.974;2024-01-15T07:00:12;94059.53;;;5.31;92.77
84914;BME280;75177;43.832;5.974;2024-01-15T07:02:38;94049.94;;;5.38;93.98
84914;BME280;75177;43.832;5.974;2024-01-15T07:05:03;94051.28;;;5.42;94.28
84914;BME280;75177;43.832;5.974;2024-01-15T07:07:30;94058.56;;;5.40;94.80
84914;BME280;75177;43.832;5.974;2024-01-15T07:09:56;94056.88;;;5.39;95.18
84914;BME280;75177;43.832;5.974;2024-01-15T07:12:21;94056.88;;;5.39;95.38
84914;BME280;75177;43.832;5.974;2024-01-15T07:14:47;94060.34;;;5.47;96.01
84914;BME280;75177;43.832;5.974;2024-01-15T07:17:12;94060.53;;;5.54;96.42
84914;BME280;75177;43.832;5.974;2024-01-15T07:19:38;94062.84;;;5.65;96.10
84914;BME280;75177;43.832;5.974;2024-01-15T07:22:04;94059.84;;;5.60;96.51
84914;BME280;75177;43.832;5.974;2024-01-15T07:24:29;94084.69;;;5.67;96.72
84914;BME280;75177;43.832;5.974;2024-01-15T07:26:55;94087.97;;;5.77;96.71
84914;BME280;75177;43.832;5.974;2024-01-15T07:29:20;94061.16;;;5.64;96.25
84914;BME280;75177;43.832;5.974;2024-01-15T07:31:52;94063.81;;;5.72;97.12
84914;BME280;75177;43.832;5.974;2024-01-15T07:34:18;94058.84;;;5.69;97.01
84914;BME280;75177;43.832;5.974;2024-01-15T07:36:44;94066.28;;;5.73;97.53
84914;BME280;75177;43.832;5.974;2024-01-15T07:39:10;94070.09;;;5.79;97.40
84914;BME280;75177;43.832;5.974;2024-01-15T07:41:36;94079.53;;;5.82;97.62
84914;BME280;75177;43.832;5.974;2024-01-15T07:44:02;94079.53;;;5.82;97.55
84914;BME280;75177;43.832;5.974;2024-01-15T07:46:28;94068.09;;;5.81;97.71
84914;BME280;75177;43.832;5.974;2024-01-15T07:48:53;94071.41;;;5.83;98.01
84914;BME280;75177;43.832;5.974;2024-01-15T07:51:24;94070.75;;;5.89;98.25
84914;BME280;75177;43.832;5.974;2024-01-15T07:53:52;94074.06;;;5.91;98.38
84914;BME280;75177;43.832;5.974;2024-01-15T07:56:17;94083.66;;;5.92;98.08
84914;BME280;75177;43.832;5.974;2024-01-15T07:58:42;94084.81;;;5.98;98.46
84914;BME280;75177;43.832;5.974;2024-01-15T08:01:08;94070.41;;;6.00;99.04
84914;BME280;75177;43.832;5.974;2024-01-15T08:03:33;94074.72;;;6.01;98.45
84914;BME280;75177;43.832;5.974;2024-01-15T08:05:59;94091.91;;;6.05;99.10
84914;BME280;75177;43.832;5.974;2024-01-15T08:08:25;94087.94;;;6.09;98.87
84914;BME280;75177;43.832;5.974;2024-01-15T08:10:54;94082.31;;;6.12;98.85
84914;BME280;75177;43.832;5.974;2024-01-15T08:13:19;94092.06;;;6.12;98.99
84914;BME280;75177;43.832;5.974;2024-01-15T08:15:46;94090.25;;;6.12;99.08
84914;BME280;75177;43.832;5.974;2024-01-15T08:18:12;94097.03;;;6.15;99.29
84914;BME280;75177;43.832;5.974;2024-01-15T08:20:37;94093.84;;;6.19;99.36
84914;BME280;75177;43.832;5.974;2024-01-15T08:23:03;94095.53;;;6.20;99.36
84914;BME280;75177;43.832;5.974;2024-01-15T08:25:29;94093.53;;;6.22;99.89
84914;BME280;75177;43.832;5.974;2024-01-15T08:27:56;94098.47;;;6.25;100.00
84914;BME280;75177;43.832;5.974;2024-01-15T08:30:22;94106.28;;;6.27;100.00
84914;BME280;75177;43.832;5.974;2024-01-15T08:32:51;94111.72;;;6.33;100.00
84914;BME280;75177;43.832;5.974;2024-01-15T08:35:16;94117.31;;;6.38;100.00
84914;BME280;75177;43.832;5.974;2024-01-15T08:37:42;94121.66;;;6.39;100.00
84914;BME280;75177;43.832;5.974;2024-01-15T08:40:07;94123.00;;;6.35;100.00
84914;BME280;75177;43.832;5.974;2024-01-15T08:42:33;94120.47;;;6.42;100.00
84914;BME280;75177;43.832;5.974;2024-01-15T08:44:58;94118.31;;;6.45;100.00
84914;BME280;75177;43.832;5.974;2024-01-15T08:47:24;94114.00;;;6.44;100.00
84914;BME280;75177;43.832;5.974;2024-01-15T08:49:50;94117.66;;;6.43;100.00
84914;BME280;75177;43.832;5.974;2024-01-15T08:52:16;94115.31;;;6.48;100.00
84914;BME280;75177;43.832;5.974;2024-01-15T08:54:41;94103.91;;;6.48;100.00
84914;BME280;75177;43.832;5.974;2024-01-15T08:57:07;94108.50;;;6.54;100.00
84914;BME280;75177;43.832;5.974;2024-01-15T08:59:32;94109.00;;;6.58;100.00
84914;BME280;75177;43.832;5.974;2024-01-15T09:01:57;94109.47;;;6.61;100.00
84914;BME280;75177;43.832;5.974;2024-01-15T09:04:23;94119.72;;;6.64;100.00
84914;BME280;75177;43.832;5.974;2024-01-15T09:06:49;94124.34;;;6.70;100.00
84914;BME280;75177;43.832;5.974;2024-01-15T09:09:14;94123.84;;;6.75;100.00
84914;BME280;75177;43.832;5.974;2024-01-15T09:11:42;94122.50;;;6.79;100.00
84914;BME280;75177;43.832;5.974;2024-01-15T09:14:08;94104.56;;;6.81;100.00
84914;BME280;75177;43.832;5.974;2024-01-15T09:16:35;94117.16;;;6.87;100.00
84914;BME280;75177;43.832;5.974;2024-01-15T09:19:00;94116.13;;;6.88;100.00
84914;BME280;75177;43.832;5.974;2024-01-15T09:21:26;94113.78;;;6.93;100.00
84914;BME280;75177;43.832;5.974;2024-01-15T09:23:51;94118.78;;;6.96;100.00
84914;BME280;75177;43.832;5.974;2024-01-15T09:26:17;94118.72;;;7.04;100.00
84914;BME280;75177;43.832;5.974;2024-01-15T09:28:42;94116.34;;;7.09;100.00
84914;BME280;75177;43.832;5.974;2024-01-15T09:31:08;94127.63;;;7.11;100.00
84914;BME280;75177;43.832;5.974;2024-01-15T09:33:33;94120.91;;;7.23;100.00
84914;BME280;75177;43.832;5.974;2024-01-15T09:36:03;94124.56;;;7.22;100.00
84914;BME280;75177;43.832;5.974;2024-01-15T09:38:31;94123.41;;;7.24;100.00
84914;BME280;75177;43.832;5.974;2024-01-15T09:40:57;94101.00;;;7.27;100.00
84914;BME280;75177;43.832;5.974;2024-01-15T09:43:22;94112.22;;;7.37;100.00
84914;BME280;75177;43.832;5.974;2024-01-15T09:45:49;94109.84;;;7.42;100.00
84914;BME280;75177;43.832;5.974;2024-01-15T09:48:15;94110.78;;;7.49;100.00
84914;BME280;75177;43.832;5.974;2024-01-15T09:50:40;94104.66;;;7.49;100.00
84914;BME280;75177;43.832;5.974;2024-01-15T09:53:06;94099.00;;;7.52;100.00
84914;BME280;75177;43.832;5.974;2024-01-15T09:55:32;94102.75;;;7.57;100.00
84914;BME280;75177;43.832;5.974;2024-01-15T09:57:59;94105.72;;;7.62;100.00
84914;BME280;75177;43.832;5.974;2024-01-15T10:00:26;94107.28;;;7.71;100.00
84914;BME280;75177;43.832;5.974;2024-01-15T10:02:51;94104.47;;;7.73;100.00
84914;BME280;75177;43.832;5.974;2024-01-15T10:05:17;94093.66;;;7.74;100.00
84914;BME280;75177;43.832;5.974;2024-01-15T10:07:43;94111.09;;;7.77;100.00
84914;BME280;75177;43.832;5.974;2024-01-15T10:10:11;94117.03;;;7.79;100.00
84914;BME280;75177;43.832;5.974;2024-01-15T10:12:36;94123.69;;;7.97;100.00
84914;BME280;75177;43.832;5.974;2024-01-15T10:15:03;94119.66;;;8.01;100.00
84914;BME280;75177;43.832;5.974;2024-01-15T10:17:29;94113.97;;;8.04;100.00
84914;BME280;75177;43.832;5.974;2024-01-15T10:19:56;94115.13;;;8.25;100.00
84914;BME280;75177;43.832;5.974;2024-01-15T10:22:22;94106.22;;;8.18;100.00
84914;BME280;75177;43.832;5.974;2024-01-15T10:24:48;94101.63;;;8.11;100.00
84914;BME280;75177;43.832;5.974;2024-01-15T10:27:14;94098.53;;;8.23;100.00
84914;BME280;75177;43.832;5.974;2024-01-15T10:29:41;94100.50;;;8.21;100.00
84914;BME280;75177;43.832;5.974;2024-01-15T10:32:07;94085.53;;;8.28;100.00
84914;BME280;75177;43.832;5.974;2024-01-15T10:34:39;94096.72;;;8.38;100.00
84914;BME280;75177;43.832;5.974;2024-01-15T10:37:08;94098.66;;;8.44;100.00
84914;BME280;75177;43.832;5.974;2024-01-15T10:39:34;94100.03;;;8.40;100.00
84914;BME280;75177;43.832;5.974;2024-01-15T10:42:00;94102.69;;;8.54;100.00
84914;BME280;75177;43.832;5.974;2024-01-15T10:44:25;94101.59;;;8.63;100.00
84914;BME280;75177;43.832;5.974;2024-01-15T10:46:51;94108.19;;;8.53;100.00
84914;BME280;75177;43.832;5.974;2024-01-15T10:49:17;94107.09;;;8.47;100.00
84914;BME280;75177;43.832;5.974;2024-01-15T10:51:44;94103.88;;;8.52;100.00
84914;BME280;75177;43.832;5.974;2024-01-15T10:54:11;94095.25;;;8.50;100.00
84914;BME280;75177;43.832;5.974;2024-01-15T10:56:39;94091.13;;;8.76;100.00
84914;BME280;75177;43.832;5.974;2024-01-15T10:59:04;94080.13;;;8.65;100.00
84914;BME280;75177;43.832;5.974;2024-01-15T11:01:30;94076.53;;;8.87;100.00
84914;BME280;75177;43.832;5.974;2024-01-15T11:03:56;94067.63;;;8.80;100.00
84914;BME280;75177;43.832;5.974;2024-01-15T11:06:24;94075.88;;;8.85;100.00
84914;BME280;75177;43.832;5.974;2024-01-15T11:08:50;94066.31;;;8.90;100.00
84914;BME280;75177;43.832;5.974;2024-01-15T11:11:21;94050.00;;;8.79;100.00
84914;BME280;75177;43.832;5.974;2024-01-15T11:13:47;94048.25;;;8.86;100.00
84914;BME280;75177;43.832;5.974;2024-01-15T11:16:15;94042.94;;;8.86;100.00
84914;BME280;75177;43.832;5.974;2024-01-15T11:19:04;94034.19;;;8.92;100.00
84914;BME280;75177;43.832;5.974;2024-01-15T11:21:31;94043.44;;;8.96;100.00
84914;BME280;75177;43.832;5.974;2024-01-15T11:24:00;94033.41;;;9.13;100.00
84914;BME280;75177;43.832;5.974;2024-01-15T11:28:55;94030.06;;;9.25;99.61
84914;BME280;75177;43.832;5.974;2024-01-15T11:32:11;94033.34;;;9.27;100.00
84914;BME280;75177;43.832;5.974;2024-01-15T11:34:12;94024.94;;;9.45;99.26
84914;BME280;75177;43.832;5.974;2024-01-15T11:41:58;94022.06;;;9.67;98.24
84914;BME280;75177;43.832;5.974;2024-01-15T11:44:25;94015.53;;;9.77;96.93
84914;BME280;75177;43.832;5.974;2024-01-15T11:47:03;94014.41;;;9.86;96.25
84914;BME280;75177;43.832;5.974;2024-01-15T11:52:16;93991.66;;;9.90;94.26
84914;BME280;75177;43.832;5.974;2024-01-15T11:54:55;94008.34;;;9.98;95.04
84914;BME280;75177;43.832;5.974;2024-01-15T11:57:51;93992.97;;;10.28;93.44
84914;BME280;75177;43.832;5.974;2024-01-15T12:00:17;93992.53;;;10.24;93.86
84914;BME280;75177;43.832;5.974;2024-01-15T12:02:43;93980.66;;;10.27;94.10
84914;BME280;75177;43.832;5.974;2024-01-15T12:05:10;93985.59;;;10.30;94.62
84914;BME280;75177;43.832;5.974;2024-01-15T12:07:39;93978.66;;;10.35;93.64
84914;BME280;75177;43.832;5.974;2024-01-15T12:10:11;93962.34;;;10.65;92.16
84914;BME280;75177;43.832;5.974;2024-01-15T12:15:09;93970.25;;;10.86;90.18
84914;BME280;75177;43.832;5.974;2024-01-15T12:17:35;93954.06;;;11.07;88.00
84914;BME280;75177;43.832;5.974;2024-01-15T12:20:05;93954.28;;;11.18;87.97
84914;BME280;75177;43.832;5.974;2024-01-15T12:22:31;93945.22;;;11.06;88.62
84914;BME280;75177;43.832;5.974;2024-01-15T12:24:56;93941.56;;;11.20;89.11
84914;BME280;75177;43.832;5.974;2024-01-15T12:27:25;93947.72;;;11.27;88.59
84914;BME280;75177;43.832;5.974;2024-01-15T12:29:52;93937.03;;;11.27;89.23
84914;BME280;75177;43.832;5.974;2024-01-15T12:32:18;93933.34;;;11.42;89.21
84914;BME280;75177;43.832;5.974;2024-01-15T12:34:44;93951.22;;;11.48;90.52
84914;BME280;75177;43.832;5.974;2024-01-15T12:37:09;93954.13;;;11.53;91.18
84914;BME280;75177;43.832;5.974;2024-01-15T12:39:36;93933.16;;;11.50;92.25
84914;BME280;75177;43.832;5.974;2024-01-15T12:42:02;93932.94;;;11.58;91.73
84914;BME280;75177;43.832;5.974;2024-01-15T12:44:28;93923.47;;;11.62;92.09
84914;BME280;75177;43.832;5.974;2024-01-15T12:46:54;93927.84;;;11.69;92.31
84914;BME280;75177;43.832;5.974;2024-01-15T12:49:21;93920.00;;;11.81;92.08
84914;BME280;75177;43.832;5.974;2024-01-15T12:51:59;93926.19;;;11.75;93.70
84914;BME280;75177;43.832;5.974;2024-01-15T12:54:25;93919.31;;;12.05;90.40
84914;BME280;75177;43.832;5.974;2024-01-15T12:56:51;93916.41;;;12.26;88.09
84914;BME280;75177;43.832;5.974;2024-01-15T12:59:17;93928.31;;;12.30;88.06
84914;BME280;75177;43.832;5.974;2024-01-15T13:01:43;93913.47;;;12.41;87.30
84914;BME280;75177;43.832;5.974;2024-01-15T13:04:08;93913.88;;;12.44;87.53
84914;BME280;75177;43.832;5.974;2024-01-15T13:06:35;93912.50;;;12.79;82.83
84914;BME280;75177;43.832;5.974;2024-01-15T13:09:00;93895.53;;;12.92;80.74
84914;BME280;75177;43.832;5.974;2024-01-15T13:11:27;93907.84;;;13.00;79.48
84914;BME280;75177;43.832;5.974;2024-01-15T13:13:52;93903.19;;;13.20;77.25
84914;BME280;75177;43.832;5.974;2024-01-15T13:16:17;93906.06;;;13.25;75.99